Time;durP1;ratioP1;P1;durP2;ratioP2;P2;SDS_P1;SDS_P2;PMS_P1;PMS_P2;Temp;Humidity;BMP_temperature;BMP_pressure;BME280_temperature;BME280_humidity;BME280_pressure;Samples;Min_cycle;Max_cycle;Signal;HPM_P1;HPM_P2
2023/04/14 00:02:48;;;;;;;0.00;0.00;;;;;;;-145.06;100.00;99759.41;10380761;28;20025;-77
2023/04/14 00:07:49;;;;;;;0.00;0.00;;;;;;;-145.06;100.00;99683.63;10401207;28;20087;-77
2023/04/14 00:12:49;;;;;;;0.00;0.00;;;;;;;-145.06;100.00;99695.91;10382056;28;20049;-77
2023/04/14 00:17:50;;;;;;;0.00;0.00;;;;;;;-145.06;100.00;99726.66;10377506;28;20040;-78
2023/04/14 00:22:50;;;;;;;0.00;0.00;;;;;;;-145.06;100.00;99638.56;10359260;28;20125;-78
2023/04/14 00:27:50;;;;;;;0.00;0.00;;;;;;;-145.06;100.00;99661.09;10377145;28;20038;-78
2023/04/14 00:32:51;;;;;;;0.00;0.00;;;;;;;-145.06;100.00;99779.91;10396010;28;20108;-78
2023/04/14 00:37:51;;;;;;;0.00;0.00;;;;;;;-145.06;100.00;99849.56;10401681;28;20082;-77
2023/04/14 00:42:52;;;;;;;0.00;0.00;;;;;;;-145.06;100.00;99736.88;10389272;28;20411;-78
2023/04/14 00:47:53;;;;;;;0.00;0.00;;;;;;;-145.06;100.00;99759.41;10377775;28;20022;-78
2023/04/14 00:52:54;;;;;;;0.15;0.15;;;;;;;-145.06;100.00;99689.78;10380069;28;20017;-78
2023/04/14 00:57:55;;;;;;;0.00;0.00;;;;;;;-145.06;100.00;99741.00;10380652;28;20409;-76
2023/04/14 01:02:55;;;;;;;0.00;0.00;;;;;;;-145.06;100.00;99792.19;10378092;28;20026;-77
2023/04/14 01:07:56;;;;;;;0.00;0.00;;;;;;;-145.06;100.00;99843.41;10377270;28;20022;-77
2023/04/14 01:13:10;;;;;;;0.00;0.00;;;;;;;-145.06;100.00;99810.63;10378153;28;20034;-77
2023/04/14 01:18:29;;;;;;;0.00;0.00;;;;;;;-145.06;100.00;99814.72;10378912;28;20022;-78
2023/04/14 01:23:37;;;;;;;0.00;0.00;;;;;;;-145.06;100.00;99786.06;10379801;28;20163;-78
2023/04/14 01:29:16;;;;;;;0.00;0.00;;;;;;;-145.06;100.00;99837.25;10377661;28;20116;-77
2023/04/14 01:34:28;;;;;;;0.10;0.10;;;;;;;-145.06;100.00;99863.91;10418890;28;20022;-78
2023/04/14 01:39:34;;;;;;;0.00;0.00;;;;;;;-145.06;100.00;99798.34;10418573;28;20499;-77
2023/04/14 01:44:37;;;;;;;0.00;0.00;;;;;;;-145.06;100.00;99849.56;10419641;28;20503;-77
2023/04/14 01:49:39;;;;;;;0.00;0.00;;;;;;;-145.06;100.00;99857.75;10386678;28;20018;-77
2023/04/14 01:54:42;;;;;;;0.10;0.10;;;;;;;-145.06;100.00;99876.19;10362224;28;20431;-77
2023/04/14 01:59:43;;;;;;;0.10;0.10;;;;;;;-145.06;100.00;99954.03;10377991;28;20141;-78
2023/04/14 02:04:46;;;;;;;0.00;0.00;;;;;;;-145.06;100.00;99886.44;10381938;28;20022;-78
2023/04/14 02:09:48;;;;;;;0.00;0.00;;;;;;;-145.06;100.00;99923.31;10419885;28;20032;-76
2023/04/14 02:14:50;;;;;;;0.00;0.00;;;;;;;-145.06;100.00;99876.19;10421631;28;20120;-78
2023/04/14 02:19:53;;;;;;;0.00;0.00;;;;;;;-145.06;100.00;99917.16;10381621;28;20037;-76
2023/04/14 02:24:54;;;;;;;0.10;0.10;;;;;;;-145.06;100.00;99884.38;10380707;28;20029;-76
2023/04/14 02:29:55;;;;;;;0.10;0.10;;;;;;;-145.06;100.00;99958.13;10379165;28;20057;-77
2023/04/14 02:35:18;;;;;;;0.00;0.00;;;;;;;-145.06;100.00;99995.00;10378412;28;20080;-75
2023/04/14 02:40:25;;;;;;;0.00;0.00;;;;;;;-145.06;100.00;100048.28;10380026;28;20026;-77
2023/04/14 02:45:29;;;;;;;0.00;0.00;;;;;;;-145.06;100.00;99980.66;10361169;28;20090;-77
2023/04/14 02:50:31;;;;;;;0.00;0.00;;;;;;;-145.06;100.00;99927.41;10360668;28;20030;-77
2023/04/14 02:55:33;;;;;;;0.00;0.00;;;;;;;-145.06;100.00;99976.56;10376368;28;20026;-77
2023/04/14 03:00:35;;;;;;;0.00;0.00;;;;;;;-145.06;100.00;99992.97;10375897;28;20029;-76
2023/04/14 03:05:37;;;;;;;0.10;0.10;;;;;;;-145.06;100.00;99945.84;10376431;28;20022;-76
2023/04/14 03:10:38;;;;;;;0.10;0.10;;;;;;;-145.06;100.00;99954.03;10376256;28;20467;-76
2023/04/14 03:15:40;;;;;;;0.00;0.00;;;;;;;-145.06;100.00;100062.59;10375216;28;20121;-77
2023/04/14 03:20:43;;;;;;;0.10;0.10;;;;;;;-145.06;100.00;100015.50;10375826;28;20045;-77
2023/04/14 03:25:43;;;;;;;0.00;0.00;;;;;;;-145.06;100.00;99964.28;10375275;28;20385;-77
2023/04/14 03:30:48;;;;;;;0.10;0.10;;;;;;;-145.06;100.00;100033.94;10356347;28;20071;-77
2023/04/14 03:35:51;;;;;;;0.00;0.00;;;;;;;-145.06;100.00;100048.28;10375016;28;20101;-77
2023/04/14 03:40:53;;;;;;;0.10;0.10;;;;;;;-145.06;100.00;100019.59;10375146;28;20032;-77
2023/04/14 03:45:54;;;;;;;0.00;0.00;;;;;;;-145.06;100.00;100025.72;10375474;28;20030;-77
2023/04/14 03:50:57;;;;;;;0.00;0.00;;;;;;;-145.06;100.00;100019.59;10375482;28;20030;-77
2023/04/14 03:55:58;;;;;;;0.00;0.00;;;;;;;-145.06;100.00;100044.16;10356863;28;20452;-77
2023/04/14 04:01:01;;;;;;;0.10;0.10;;;;;;;-145.06;100.00;99954.03;10374089;28;20026;-77
2023/04/14 04:06:02;;;;;;;0.00;0.00;;;;;;;-145.06;100.00;100052.38;10373640;28;20025;-77
2023/04/14 04:11:06;;;;;;;0.00;0.00;;;;;;;-145.06;100.00;100064.66;10368531;28;20037;-77
2023/04/14 04:16:09;;;;;;;0.10;0.10;;;;;;;-145.06;100.00;100038.03;10366015;28;20029;-76
2023/04/14 04:21:10;;;;;;;0.00;0.00;;;;;;;-145.06;100.00;100095.38;10373575;28;20057;-76
2023/04/14 04:26:10;;;;;;;0.10;0.10;;;;;;;-145.06;100.00;100017.53;10372429;28;20022;-77
2023/04/14 04:31:13;;;;;;;0.00;0.00;;;;;;;-145.06;100.00;100117.91;10371541;28;20180;-77
2023/04/14 04:36:13;;;;;;;0.10;0.10;;;;;;;-145.06;100.00;100076.94;10372404;28;20473;-77
2023/04/14 04:41:21;;;;;;;0.03;0.03;;;;;;;-145.06;100.00;100035.97;10371733;28;20022;-77
2023/04/14 04:46:53;;;;;;;0.00;0.00;;;;;;;-145.06;100.00;100085.13;10372712;28;20030;-77
2023/04/14 04:51:55;;;;;;;0.10;0.10;;;;;;;-145.06;100.00;100083.09;10372832;28;20049;-77
2023/04/14 04:56:57;;;;;;;0.10;0.10;;;;;;;-145.06;100.00;100142.50;10368888;28;20116;-77
2023/04/14 05:01:57;;;;;;;0.03;0.03;;;;;;;-145.06;100.00;100093.34;10369122;28;20085;-77
2023/04/14 05:06:58;;;;;;;0.10;0.10;;;;;;;-145.06;100.00;100150.69;10369629;28;20101;-77
2023/04/14 05:11:58;;;;;;;0.10;0.10;;;;;;;-145.06;100.00;100126.13;10370130;28;20592;-77
2023/04/14 05:16:58;;;;;;;0.00;0.00;;;;;;;-145.06;100.00;100126.13;10370540;28;20048;-77
2023/04/14 05:21:59;;;;;;;0.10;0.10;;;;;;;-145.06;100.00;100058.50;10369826;28;20026;-77
2023/04/14 05:27:00;;;;;;;0.00;0.00;;;;;;;-145.06;100.00;100101.53;10370323;28;20481;-77
2023/04/14 05:32:01;;;;;;;0.10;0.10;;;;;;;-145.06;100.00;100111.78;10353123;28;20037;-77
2023/04/14 05:37:01;;;;;;;0.00;0.00;;;;;;;-145.06;100.00;100050.31;10356457;28;20026;-77
2023/04/14 05:42:02;;;;;;;0.00;0.00;;;;;;;-145.06;100.00;100007.28;10379516;28;20328;-78
2023/04/14 05:47:02;;;;;;;0.00;0.00;;;;;;;-145.06;100.00;99962.22;10383249;28;20365;-78
2023/04/14 05:52:02;;;;;;;0.00;0.00;;;;;;;-145.06;100.00;99794.25;10385241;28;20021;-78
2023/04/14 05:57:03;;;;;;;0.00;0.00;;;;;;;-145.06;100.00;99773.75;10381381;28;20029;-78
2023/04/14 06:02:05;;;;;;;0.00;0.00;;;;;;;-145.06;100.00;99552.53;10366311;28;20480;-78
2023/04/14 06:07:06;;;;;;;0.00;0.00;;;;;;;-145.06;100.00;99421.44;10387149;28;20021;-78
2023/04/14 06:12:06;;;;;;;0.00;0.00;;;;;;;-145.06;100.00;99233.00;10388331;28;20046;-75
2023/04/14 06:17:06;;;;;;;0.10;0.10;;;;;;;-145.06;100.00;99300.59;10375310;28;20266;-76
2023/04/14 06:22:10;;;;;;;0.10;0.10;;;;;;;-145.06;100.00;99075.28;10359170;28;20017;-75
2023/04/14 06:27:10;;;;;;;0.00;0.00;;;;;;;-145.06;100.00;98864.34;10354448;28;20268;-76
2023/04/14 06:32:11;;;;;;;0.10;0.10;;;;;;;-145.06;100.00;99044.56;10373183;28;20413;-76
2023/04/14 06:37:11;;;;;;;0.10;0.10;;;;;;;-145.06;100.00;98882.78;10371797;28;20026;-76
2023/04/14 06:42:12;;;;;;;0.10;0.10;;;;;;;-145.06;100.00;98755.78;10370366;28;20034;-76
2023/04/14 06:47:17;;;;;;;0.10;0.10;;;;;;;-145.06;100.00;98702.53;10373353;28;20030;-76
2023/04/14 06:52:17;;;;;;;0.10;0.10;;;;;;;-145.06;100.00;98538.72;10369481;28;20044;-77
2023/04/14 06:57:17;;;;;;;0.10;0.10;;;;;;;-145.06;100.00;98397.41;10352128;28;20025;-74
2023/04/14 07:02:18;;;;;;;0.00;0.00;;;;;;;-145.06;87.52;98182.41;10354792;28;20460;-75
2023/04/14 07:07:18;;;;;;;0.10;0.10;;;;;;;-145.06;89.60;98221.31;10371050;28;20477;-76
2023/04/14 07:12:18;;;;;;;0.00;0.00;;;;;;;-145.06;72.31;98143.50;10370798;28;20036;-76
2023/04/14 07:17:19;;;;;;;0.10;0.10;;;;;;;-145.06;78.05;98069.78;10369639;28;20032;-76
2023/04/14 07:22:19;;;;;;;0.00;0.00;;;;;;;-145.06;80.84;98190.59;10365091;28;20088;-76
2023/04/14 07:27:19;;;;;;;0.10;0.10;;;;;;;-145.06;81.07;98120.97;10368953;28;20045;-77
2023/04/14 07:32:20;;;;;;;0.10;0.10;;;;;;;-145.06;71.39;98045.22;10368739;28;20029;-77
2023/04/14 07:37:20;;;;;;;0.00;0.00;;;;;;;-145.06;67.97;98229.50;10367190;28;20029;-76
2023/04/14 07:42:20;;;;;;;0.10;0.10;;;;;;;-145.06;62.47;98168.06;10368502;28;20018;-76
2023/04/14 07:47:21;;;;;;;0.10;0.10;;;;;;;-145.06;61.59;98266.34;10377077;28;20024;-76
2023/04/14 07:52:21;;;;;;;0.10;0.10;;;;;;;-145.06;60.71;98190.59;10370490;28;20021;-77
2023/04/14 07:57:22;;;;;;;0.10;0.10;;;;;;;-145.06;63.14;98268.41;10383183;28;20481;-79
2023/04/14 08:02:22;;;;;;;0.10;0.10;;;;;;;-145.06;61.78;98376.94;10376741;28;20329;-79
2023/04/14 08:07:22;;;;;;;0.00;0.00;;;;;;;-145.06;65.38;98383.09;10357700;28;20030;-79
2023/04/14 08:12:23;;;;;;;0.00;0.00;;;;;;;-145.06;69.54;98424.03;10367897;28;20017;-78
2023/04/14 08:17:24;;;;;;;0.00;0.00;;;;;;;-145.06;70.42;98575.56;10357011;28;20064;-77
2023/04/14 08:22:24;;;;;;;0.00;0.00;;;;;;;-145.06;72.56;98559.19;10356572;28;20435;-77
2023/04/14 08:27:24;;;;;;;0.00;0.00;;;;;;;-145.06;72.81;98569.44;10350599;28;20021;-79
2023/04/14 08:32:25;;;;;;;0.10;0.10;;;;;;;-145.06;72.27;98743.50;10377702;28;20032;-79
2023/04/14 08:37:25;;;;;;;0.10;0.10;;;;;;;-145.06;73.10;98639.06;10375518;28;20048;-79
2023/04/14 08:42:26;;;;;;;0.10;0.10;;;;;;;-145.06;72.13;98671.81;10374439;28;20064;-79
2023/04/14 08:47:31;;;;;;;0.00;0.00;;;;;;;-145.06;72.51;98714.84;10376160;28;20066;-78
2023/04/14 08:52:35;;;;;;;0.10;0.10;;;;;;;-145.06;69.91;98741.47;10359320;28;20276;-78
2023/04/14 08:57:35;;;;;;;0.10;0.10;;;;;;;-145.06;66.37;98843.84;10368672;28;20022;-78
2023/04/14 09:02:38;;;;;;;0.10;0.10;;;;;;;-145.06;72.51;98835.66;10372064;28;20531;-78
2023/04/14 09:07:41;;;;;;;0.10;0.10;;;;;;;-145.06;67.44;98737.38;10351887;28;20088;-79
2023/04/14 09:12:42;;;;;;;0.10;0.10;;;;;;;-145.06;71.17;98950.34;10363573;28;20026;-79
2023/04/14 09:17:43;;;;;;;0.10;0.10;;;;;;;-145.06;69.99;98979.03;10373331;28;20101;-78
2023/04/14 09:22:46;;;;;;;0.10;0.10;;;;;;;-145.06;66.29;98974.94;10385227;28;20056;-79
2023/04/14 09:27:48;;;;;;;0.10;0.10;;;;;;;-145.06;66.07;98847.94;10391394;28;20025;-79
2023/04/14 09:32:55;;;;;;;0.10;0.10;;;;;;;-145.06;67.74;99003.59;10393784;28;20438;-79
2023/04/14 09:37:55;;;;;;;0.10;0.10;;;;;;;-145.06;67.76;99001.56;10389571;28;20032;-78
2023/04/14 09:43:05;;;;;;;0.10;0.10;;;;;;;-145.06;62.76;99065.06;10366946;28;20089;-78
2023/04/14 09:48:07;;;;;;;0.00;0.00;;;;;;;-145.06;65.04;99058.91;10379931;28;20037;-78
2023/04/14 09:53:07;;;;;;;0.10;0.10;;;;;;;-145.06;65.16;99036.38;10370059;28;20112;-79
2023/04/14 09:58:08;;;;;;;0.10;0.10;;;;;;;-145.06;61.09;99112.16;10388435;28;20073;-79
2023/04/14 10:03:09;;;;;;;0.10;0.10;;;;;;;-145.06;57.88;99065.06;10372985;28;20035;-79
2023/04/14 10:08:09;;;;;;;0.10;0.10;;;;;;;-145.06;61.03;99052.75;10383485;28;20392;-78
2023/04/14 10:13:13;;;;;;;0.10;0.10;;;;;;;-145.06;60.56;99017.94;10366436;28;20104;-78
2023/04/14 10:18:14;;;;;;;0.10;0.10;;;;;;;-145.06;62.26;98940.13;10377766;28;20036;-79
2023/04/14 10:23:15;;;;;;;0.10;0.10;;;;;;;-145.06;60.05;98921.69;10386716;28;20032;-79
2023/04/14 10:28:16;;;;;;;0.00;0.00;;;;;;;-145.06;57.00;98946.25;10374420;28;20018;-79
2023/04/14 10:33:17;;;;;;;0.10;0.10;;;;;;;-145.06;54.09;99036.38;10378378;28;20492;-78
2023/04/14 10:38:17;;;;;;;0.00;0.00;;;;;;;-145.06;55.39;99056.84;10378113;28;20014;-78
2023/04/14 10:43:18;;;;;;;0.10;0.10;;;;;;;-145.06;56.69;99085.53;10373541;28;20010;-79
2023/04/14 10:48:18;;;;;;;0.10;0.10;;;;;;;-145.06;53.88;99122.41;10379615;28;20028;-79
2023/04/14 10:53:19;;;;;;;0.00;0.00;;;;;;;-145.06;53.00;99110.09;10376854;28;20060;-79
2023/04/14 10:58:22;;;;;;;0.10;0.10;;;;;;;-145.06;51.87;99040.47;10355734;28;20080;-78
2023/04/14 11:03:22;;;;;;;0.10;0.10;;;;;;;-145.06;51.61;99146.97;10348951;28;20057;-78
2023/04/14 11:08:35;;;;;;;0.10;0.10;;;;;;;-145.06;47.44;99255.53;10355477;28;20041;-79
2023/04/14 11:13:37;;;;;;;0.10;0.10;;;;;;;-145.06;54.52;99290.34;10359701;28;20053;-80
2023/04/14 11:18:41;;;;;;;0.10;0.10;;;;;;;-145.06;56.55;99163.34;10359126;28;20338;-80
2023/04/14 11:23:42;;;;;;;0.10;0.10;;;;;;;-145.06;55.42;99085.53;10373835;28;20053;-80
2023/04/14 11:28:45;;;;;;;0.10;0.10;;;;;;;-145.06;52.04;99294.44;10361171;28;20044;-79
2023/04/14 11:33:45;;;;;;;0.10;0.10;;;;;;;-145.06;54.18;99163.34;10374198;28;20033;-79
2023/04/14 11:38:46;;;;;;;0.10;0.10;;;;;;;-145.06;52.87;99169.50;10373711;28;20033;-78
2023/04/14 11:43:47;;;;;;;0.10;0.10;;;;;;;-145.06;52.78;99114.19;10382012;28;20028;-79
2023/04/14 11:48:56;;;;;;;0.03;0.03;;;;;;;-145.06;57.79;99065.06;10358092;28;20420;-79
2023/04/14 11:53:57;;;;;;;0.10;0.10;;;;;;;-145.06;50.09;98970.84;10351034;28;20488;-78
2023/04/14 11:58:59;;;;;;;0.08;0.08;;;;;;;-145.06;50.81;99073.25;10361426;28;20037;-81
2023/04/14 12:04:00;;;;;;;0.10;0.10;;;;;;;-145.06;50.40;98933.97;10376473;28;20033;-82
2023/04/14 12:09:02;;;;;;;0.00;0.00;;;;;;;-145.06;52.18;98909.41;10372861;28;20026;-81
2023/04/14 12:14:03;;;;;;;0.00;0.00;;;;;;;-145.06;61.04;99009.75;10375134;28;20517;-79
2023/04/14 12:19:04;;;;;;;0.10;0.10;;;;;;;-145.06;54.71;99048.66;10371235;28;20019;-80
2023/04/14 12:24:04;;;;;;;0.10;0.10;;;;;;;-145.06;58.09;99056.84;10372554;28;20014;-80
2023/04/14 12:29:05;;;;;;;0.10;0.10;;;;;;;-145.06;62.25;99112.16;10373303;28;20268;-79
2023/04/14 12:34:05;;;;;;;0.10;0.10;;;;;;;-145.06;58.31;99181.78;10368905;28;20069;-79
2023/04/14 12:39:07;;;;;;;0.10;0.10;;;;;;;-145.06;61.41;99384.56;10373419;28;20095;-79
2023/04/14 12:44:19;;;;;;;0.10;0.10;;;;;;;-145.06;58.52;99290.34;10355301;28;20078;-80
2023/04/14 12:49:37;;;;;;;0.10;0.10;;;;;;;-145.06;59.39;99386.63;10349476;28;20021;-80
2023/04/14 12:54:47;;;;;;;0.00;0.00;;;;;;;-145.06;57.81;99347.69;10356283;28;20064;-80
2023/04/14 12:59:48;;;;;;;0.10;0.10;;;;;;;-145.06;61.14;99165.41;10350266;28;20105;-78
2023/04/14 13:04:48;;;;;;;0.10;0.10;;;;;;;-145.06;57.02;99239.13;10371229;28;20045;-79
2023/04/14 13:09:50;;;;;;;0.10;0.10;;;;;;;-145.06;57.02;99253.47;10371122;28;20049;-78
2023/04/14 13:14:52;;;;;;;0.00;0.00;;;;;;;-145.06;59.36;99196.13;10364315;28;20030;-78
2023/04/14 13:19:52;;;;;;;0.00;0.00;;;;;;;-145.06;58.08;99349.75;10368012;28;20032;-78
2023/04/14 13:24:52;;;;;;;0.10;0.10;;;;;;;-145.06;65.47;99360.00;10351673;28;20124;-77
2023/04/14 13:29:53;;;;;;;0.00;0.00;;;;;;;-145.06;61.73;99255.53;10349462;28;20041;-78
2023/04/14 13:34:53;;;;;;;0.10;0.10;;;;;;;-145.06;66.77;99251.44;10371107;28;20549;-77
2023/04/14 13:39:53;;;;;;;0.10;0.10;;;;;;;-145.06;62.36;99073.25;10352838;28;20037;-76
2023/04/14 13:44:54;;;;;;;0.10;0.10;;;;;;;-145.06;68.18;99159.25;10366572;28;20025;-79
2023/04/14 13:49:54;;;;;;;0.00;0.00;;;;;;;-145.06;66.55;99103.97;10371271;28;20021;-79
2023/04/14 13:54:54;;;;;;;0.10;0.10;;;;;;;-145.06;67.61;99144.94;10370982;28;20121;-78
2023/04/14 13:59:55;;;;;;;0.10;0.10;;;;;;;-145.06;61.64;99192.03;10380366;28;20026;-78
2023/04/14 14:04:56;;;;;;;0.00;0.00;;;;;;;-145.06;64.60;99169.50;10363166;28;20269;-79
2023/04/14 14:09:56;;;;;;;0.10;0.10;;;;;;;-145.06;63.49;99114.19;10376898;28;20025;-79
2023/04/14 14:14:57;;;;;;;0.10;0.10;;;;;;;-145.06;64.71;99134.69;10374356;28;20124;-78
2023/04/14 14:19:58;;;;;;;0.10;0.10;;;;;;;-145.06;65.65;98983.13;10358235;28;20433;-78
2023/04/14 14:24:58;;;;;;;0.10;0.10;;;;;;;-145.06;63.65;99013.84;10373134;28;20025;-79
2023/04/14 14:29:58;;;;;;;0.10;0.10;;;;;;;-145.06;71.70;98985.16;10376027;28;20233;-78
2023/04/14 14:34:59;;;;;;;0.10;0.10;;;;;;;-145.06;66.81;99179.75;10356679;28;20480;-80
2023/04/14 14:39:59;;;;;;;0.10;0.10;;;;;;;-145.06;66.91;99146.97;10369495;28;20125;-78
2023/04/14 14:45:00;;;;;;;0.10;0.10;;;;;;;-145.06;68.37;99067.09;10356854;28;20009;-78
2023/04/14 14:50:02;;;;;;;0.10;0.10;;;;;;;-145.06;67.25;99138.78;10373504;28;20018;-78
2023/04/14 14:55:03;;;;;;;0.10;0.10;;;;;;;-145.06;67.57;99032.28;10380667;28;20018;-80
2023/04/14 15:00:06;;;;;;;0.10;0.10;;;;;;;-145.06;68.43;98995.41;10379155;28;20049;-78
2023/04/14 15:05:08;;;;;;;0.10;0.10;;;;;;;-145.06;64.37;98995.41;10355443;28;20014;-78
2023/04/14 15:10:08;;;;;;;0.00;0.00;;;;;;;-145.06;72.23;98962.66;10355768;28;20417;-78
2023/04/14 15:15:09;;;;;;;0.10;0.10;;;;;;;-145.06;86.73;99015.91;10375234;28;20022;-78
2023/04/14 15:20:10;;;;;;;0.10;0.10;;;;;;;-145.06;74.69;99038.44;10370577;28;20064;-77
2023/04/14 15:25:10;;;;;;;0.00;0.00;;;;;;;-145.06;80.68;99085.53;10353070;28;20022;-77
2023/04/14 15:30:11;;;;;;;0.10;0.10;;;;;;;-145.06;95.97;99001.56;10365044;28;20026;-77
2023/04/14 15:35:11;;;;;;;0.10;0.10;;;;;;;-145.06;80.62;99015.91;10369511;28;20033;-78
2023/04/14 15:40:11;;;;;;;0.00;0.00;;;;;;;-145.06;89.76;98974.94;10371411;28;20028;-78
2023/04/14 15:45:12;;;;;;;0.10;0.10;;;;;;;-145.06;85.78;99106.00;10370405;28;20029;-76
2023/04/14 15:50:17;;;;;;;0.10;0.10;;;;;;;-145.06;88.11;99220.72;10367575;28;20026;-78
2023/04/14 15:55:18;;;;;;;0.10;0.10;;;;;;;-145.06;95.15;99308.78;10371900;28;20462;-78
2023/04/14 16:00:18;;;;;;;0.10;0.10;;;;;;;-145.06;97.16;99226.84;10373410;28;20117;-78
2023/04/14 16:05:19;;;;;;;0.10;0.10;;;;;;;-145.06;100.00;99251.44;10373708;28;20610;-78
2023/04/14 16:10:19;;;;;;;0.10;0.10;;;;;;;-145.06;100.00;99267.81;10372052;28;20029;-78
2023/04/14 16:15:20;;;;;;;0.10;0.10;;;;;;;-145.06;92.91;99122.41;10368175;28;20437;-78
2023/04/14 16:20:20;;;;;;;0.10;0.10;;;;;;;-145.06;96.69;99228.91;10353501;28;20030;-79
2023/04/14 16:25:21;;;;;;;0.10;0.10;;;;;;;-145.06;99.51;99175.66;10352451;28;20033;-78
2023/04/14 16:30:21;;;;;;;0.10;0.10;;;;;;;-145.06;100.00;99171.56;10350760;28;20037;-78
2023/04/14 16:35:21;;;;;;;0.10;0.10;;;;;;;-145.06;100.00;99212.53;10370547;28;21348;-78
2023/04/14 16:40:21;;;;;;;0.10;0.10;;;;;;;-145.06;100.00;99214.56;10348823;28;20642;-78
2023/04/14 16:45:22;;;;;;;0.10;0.10;;;;;;;-145.06;100.00;99237.09;10352318;28;20057;-78
2023/04/14 16:50:22;;;;;;;0.10;0.10;;;;;;;-145.06;96.66;99300.59;10370421;28;20449;-77
2023/04/14 16:55:23;;;;;;;0.00;0.00;;;;;;;-145.06;100.00;99417.34;10366614;28;20480;-78
2023/04/14 17:00:24;;;;;;;0.05;0.05;;;;;;;-145.06;100.00;99331.31;10369323;28;20120;-77
2023/04/14 17:05:24;;;;;;;0.10;0.10;;;;;;;-145.06;100.00;99339.50;10368984;28;20089;-78
2023/04/14 17:10:27;;;;;;;0.10;0.10;;;;;;;-145.06;100.00;99462.41;10366133;28;20108;-78
2023/04/14 17:15:28;;;;;;;0.10;0.10;;;;;;;-145.06;100.00;99347.69;10372432;28;20175;-78
2023/04/14 17:20:29;;;;;;;0.10;0.10;;;;;;;-145.06;100.00;99280.09;10371809;28;20072;-77
2023/04/14 17:25:30;;;;;;;0.10;0.10;;;;;;;-145.06;100.00;99298.53;10365471;28;20017;-77
2023/04/14 17:30:32;;;;;;;0.10;0.10;;;;;;;-145.06;100.00;99325.16;10368623;28;20021;-78
2023/04/14 17:35:34;;;;;;;0.10;0.10;;;;;;;-145.06;100.00;99355.91;10371852;28;20049;-77
2023/04/14 17:40:34;;;;;;;0.00;0.00;;;;;;;-145.06;100.00;99261.69;10378166;28;20045;-78
2023/04/14 17:45:34;;;;;;;0.10;0.10;;;;;;;-145.06;100.00;99454.22;10359570;28;20050;-78
2023/04/14 17:50:35;;;;;;;0.10;0.10;;;;;;;-145.06;100.00;99437.81;10358851;28;20125;-78
2023/04/14 17:55:36;;;;;;;0.00;0.00;;;;;;;-145.06;100.00;99403.00;10379178;28;20776;-77
2023/04/14 18:00:37;;;;;;;0.10;0.10;;;;;;;-145.06;100.00;99409.16;10364577;28;20359;-77
2023/04/14 18:05:37;;;;;;;0.10;0.10;;;;;;;-145.06;100.00;99462.41;10379321;28;20028;-77
2023/04/14 18:10:38;;;;;;;0.00;0.00;;;;;;;-145.06;100.00;99437.81;10363716;28;20049;-78
2023/04/14 18:15:40;;;;;;;0.10;0.10;;;;;;;-145.06;100.00;99536.16;10381411;28;20030;-78
2023/04/14 18:20:44;;;;;;;0.10;0.10;;;;;;;-145.06;100.00;99536.16;10381187;28;20472;-78
2023/04/14 18:25:44;;;;;;;0.00;0.00;;;;;;;-145.06;100.00;99530.00;10382265;28;20045;-78
2023/04/14 18:30:52;;;;;;;0.00;0.00;;;;;;;-145.06;100.00;99499.28;10377627;28;20484;-78
2023/04/14 18:35:55;;;;;;;0.00;0.00;;;;;;;-145.06;100.00;99458.31;10381839;28;20045;-78
2023/04/14 18:41:03;;;;;;;0.00;0.00;;;;;;;-145.06;100.00;99417.34;10380804;28;20050;-78
2023/04/14 18:46:04;;;;;;;0.00;0.00;;;;;;;-145.06;100.00;99439.88;10365458;28;20117;-79
2023/04/14 18:51:06;;;;;;;0.10;0.10;;;;;;;-145.06;100.00;99546.38;10385893;28;20046;-79
2023/04/14 18:56:07;;;;;;;0.00;0.00;;;;;;;-145.06;100.00;99616.03;10381072;28;20110;-78
2023/04/14 19:01:08;;;;;;;0.00;0.00;;;;;;;-145.06;100.00;99616.03;10382525;28;20022;-79
2023/04/14 19:06:08;;;;;;;0.10;0.10;;;;;;;-145.06;100.00;99589.41;10360416;28;20037;-79
2023/04/14 19:11:09;;;;;;;0.00;0.00;;;;;;;-145.06;100.00;99609.88;10382335;28;20049;-79
2023/04/14 19:16:12;;;;;;;0.00;0.00;;;;;;;-145.06;100.00;99583.25;10374598;28;20382;-79
2023/04/14 19:21:12;;;;;;;0.00;0.00;;;;;;;-145.06;100.00;99679.53;10374740;28;20028;-79
2023/04/14 19:26:13;;;;;;;0.00;0.00;;;;;;;-145.06;100.00;99771.72;10374826;28;20511;-79
2023/04/14 19:31:14;;;;;;;0.10;0.10;;;;;;;-145.06;100.00;99540.25;10375844;28;20038;-79
2023/04/14 19:36:16;;;;;;;0.08;0.08;;;;;;;-145.06;100.00;99654.94;10354578;28;20033;-79
2023/04/14 19:41:16;;;;;;;0.00;0.00;;;;;;;-145.06;100.00;99540.25;10372149;28;20030;-78
2023/04/14 19:46:16;;;;;;;0.00;0.00;;;;;;;-145.06;100.00;99597.59;10354801;28;20018;-80
2023/04/14 19:51:17;;;;;;;0.00;0.00;;;;;;;-145.06;100.00;99628.31;10370870;28;20424;-80
2023/04/14 19:56:17;;;;;;;0.00;0.00;;;;;;;-145.06;100.00;99521.81;10375456;28;20033;-80
2023/04/14 20:01:17;;;;;;;0.00;0.00;;;;;;;-145.06;100.00;99667.25;10356035;28;20025;-79
2023/04/14 20:06:18;;;;;;;0.00;0.00;;;;;;;-145.06;100.00;99759.41;10352788;28;20026;-78
2023/04/14 20:11:19;;;;;;;0.00;0.00;;;;;;;-145.06;100.00;99538.19;10372120;28;20056;-78
2023/04/14 20:16:20;;;;;;;0.00;0.00;;;;;;;-145.06;100.00;99687.72;10370532;28;20018;-79
2023/04/14 20:21:21;;;;;;;0.00;0.00;;;;;;;-145.06;100.00;99650.84;10370478;28;20076;-78
2023/04/14 20:26:21;;;;;;;0.00;0.00;;;;;;;-145.06;100.00;99609.88;10371224;28;20370;-79
2023/04/14 20:31:23;;;;;;;0.00;0.00;;;;;;;-145.06;100.00;99620.13;10369918;28;20504;-78
2023/04/14 20:36:23;;;;;;;0.00;0.00;;;;;;;-145.06;100.00;99605.78;10371189;28;20086;-79
2023/04/14 20:41:23;;;;;;;0.00;0.00;;;;;;;-145.06;100.00;99675.44;10372689;28;20133;-79
2023/04/14 20:46:24;;;;;;;0.00;0.00;;;;;;;-145.06;100.00;99663.16;10351024;28;20028;-78
2023/04/14 20:51:24;;;;;;;0.00;0.00;;;;;;;-145.06;100.00;99620.13;10371012;28;20030;-79
2023/04/14 20:56:27;;;;;;;0.00;0.00;;;;;;;-145.06;100.00;99577.13;10353026;28;20030;-79
2023/04/14 21:01:27;;;;;;;0.00;0.00;;;;;;;-145.06;100.00;99589.41;10369183;28;20026;-78
2023/04/14 21:06:28;;;;;;;0.00;0.00;;;;;;;-145.06;100.00;99581.22;10352835;28;20338;-79
2023/04/14 21:11:28;;;;;;;0.00;0.00;;;;;;;-145.06;100.00;99616.03;10369900;28;20268;-79
2023/04/14 21:16:29;;;;;;;0.00;0.00;;;;;;;-145.06;100.00;99562.78;10353285;28;20080;-79
2023/04/14 21:21:30;;;;;;;0.00;0.00;;;;;;;-145.06;100.00;99540.25;10370472;28;20524;-79
2023/04/14 21:26:30;;;;;;;0.00;0.00;;;;;;;-145.06;100.00;99616.03;10369262;28;20473;-79
2023/04/14 21:31:31;;;;;;;0.05;0.05;;;;;;;-145.06;100.00;99657.00;10432091;22;20068;-76
2023/04/14 21:36:31;;;;;;;0.00;0.00;;;;;;;-145.06;100.00;99548.44;10422689;28;20468;-78
2023/04/14 21:41:31;;;;;;;0.00;0.00;;;;;;;-145.06;100.00;99523.84;10411253;28;20110;-77
2023/04/14 21:46:32;;;;;;;0.00;0.00;;;;;;;-145.06;100.00;99501.31;10435003;28;20251;-77
2023/04/14 21:51:33;;;;;;;0.00;0.00;;;;;;;-145.06;100.00;99491.09;10428660;28;20031;-77
2023/04/14 21:56:33;;;;;;;0.00;0.00;;;;;;;-145.06;100.00;99489.03;10432922;28;20472;-77
2023/04/14 22:01:35;;;;;;;0.00;0.00;;;;;;;-145.06;100.00;99478.78;10436984;28;20029;-77
2023/04/14 22:06:35;;;;;;;0.00;0.00;;;;;;;-145.06;100.00;99384.56;10408016;28;20337;-77
2023/04/14 22:11:36;;;;;;;0.00;0.00;;;;;;;-145.06;100.00;99472.66;10437456;28;20025;-77
2023/04/14 22:16:36;;;;;;;0.00;0.00;;;;;;;-145.06;100.00;99431.69;10418210;28;20025;-76
2023/04/14 22:21:37;;;;;;;0.00;0.00;;;;;;;-145.06;100.00;99353.84;10441750;28;20028;-77
2023/04/14 22:26:37;;;;;;;0.00;0.00;;;;;;;-145.06;100.00;99372.28;10447050;28;20028;-77
2023/04/14 22:31:37;;;;;;;0.00;0.00;;;;;;;-145.06;100.00;99388.66;10427015;28;20020;-77
2023/04/14 22:36:37;;;;;;;0.00;0.00;;;;;;;-145.06;100.00;99437.81;10430838;28;20093;-77
2023/04/14 22:41:38;;;;;;;0.00;0.00;;;;;;;-145.06;100.00;99532.03;10415502;28;20399;-76